Time,TemperatureF,DewpointF,PressureIn,WindDirection,WindDirectionDegrees,WindSpeedMPH,WindSpeedGustMPH,Humidity,HourlyPrecipIn,Conditions,Clouds,dailyrainin,SolarRadiationWatts/m^2,SoftwareType,DateUTC
2013-04-21 00:02:00,57.0,36.0,-100.00,SE,143,6.0,11.0,45,0.00,,,0.00,0.000000,,2013-04-21 05:02:00,
2013-04-21 00:32:00,56.0,35.0,-100.00,SE,139,6.0,11.0,45,0.00,,,0.00,0.000000,,2013-04-21 05:32:00,
2013-04-21 00:43:00,56.0,35.0,-100.00,SE,139,6.0,11.0,45,0.00,,,0.00,0.000000,,2013-04-21 05:43:00,
2013-04-21 00:52:00,56.0,35.0,-100.00,SE,139,6.0,11.0,45,0.00,,,0.00,0.000000,,2013-04-21 05:52:00,
2013-04-21 01:01:00,56.0,35.0,-100.00,SE,139,6.0,11.0,45,0.00,,,0.00,0.000000,,2013-04-21 06:01:00,
2013-04-21 01:32:00,58.0,35.0,-100.00,SSE,155,13.0,20.0,42,0.00,,,0.00,0.000000,,2013-04-21 06:32:00,
2013-04-21 01:42:00,58.0,35.0,-100.00,SSE,155,13.0,20.0,42,0.00,,,0.00,0.000000,,2013-04-21 06:42:00,
2013-04-21 01:52:00,58.0,35.0,-100.00,SSE,155,13.0,20.0,42,0.00,,,0.00,0.000000,,2013-04-21 06:52:00,
2013-04-21 02:01:00,58.0,35.0,-100.00,SSE,155,13.0,20.0,42,0.00,,,0.00,0.000000,,2013-04-21 07:01:00,
2013-04-21 02:32:00,55.0,39.0,-100.00,SSE,163,10.0,18.0,55,0.00,,,0.00,0.000000,,2013-04-21 07:32:00,
2013-04-21 02:42:00,55.0,39.0,-100.00,SSE,163,10.0,18.0,55,0.00,,,0.00,0.000000,,2013-04-21 07:42:00,
2013-04-21 02:52:00,55.0,39.0,-100.00,SSE,163,10.0,18.0,55,0.00,,,0.00,0.000000,,2013-04-21 07:52:00,
2013-04-21 03:01:00,55.0,39.0,-100.00,SSE,163,10.0,18.0,55,0.00,,,0.00,0.000000,,2013-04-21 08:01:00,
2013-04-21 03:32:00,53.0,39.0,-100.00,South,176,8.0,16.0,59,0.00,,,0.00,0.000000,,2013-04-21 08:32:00,
2013-04-21 03:42:00,53.0,39.0,-100.00,South,176,8.0,16.0,59,0.00,,,0.00,0.000000,,2013-04-21 08:42:00,
2013-04-21 03:52:00,53.0,39.0,-100.00,South,176,8.0,16.0,59,0.00,,,0.00,0.000000,,2013-04-21 08:52:00,
2013-04-21 04:01:00,53.0,39.0,-100.00,South,176,8.0,16.0,59,0.00,,,0.00,0.000000,,2013-04-21 09:01:00,
2013-04-21 04:33:00,52.0,41.0,-100.00,South,169,8.0,12.0,65,0.00,,,0.00,0.000000,,2013-04-21 09:33:00,
2013-04-21 04:43:00,52.0,41.0,-100.00,South,169,8.0,12.0,65,0.00,,,0.00,0.000000,,2013-04-21 09:43:00,
2013-04-21 04:53:00,52.0,41.0,-100.00,South,169,8.0,12.0,65,0.00,,,0.00,0.000000,,2013-04-21 09:53:00,
2013-04-21 05:02:00,52.0,41.0,-100.00,South,169,8.0,12.0,65,0.00,,,0.00,0.000000,,2013-04-21 10:02:00,
2013-04-21 05:33:00,51.0,38.0,-100.00,SSE,160,8.0,13.0,62,0.00,,,0.00,0.000000,,2013-04-21 10:33:00,
2013-04-21 05:42:00,51.0,38.0,-100.00,SSE,160,8.0,13.0,62,0.00,,,0.00,0.000000,,2013-04-21 10:42:00,
2013-04-21 05:52:00,51.0,38.0,-100.00,SSE,160,8.0,13.0,62,0.00,,,0.00,0.000000,,2013-04-21 10:52:00,
2013-04-21 06:02:00,51.0,38.0,-100.00,SSE,160,8.0,13.0,62,0.00,,,0.00,0.000000,,2013-04-21 11:02:00,
2013-04-21 06:34:00,49.0,39.0,-100.00,SE,139,4.0,13.0,69,0.00,,,0.00,0.000000,,2013-04-21 11:34:00,
2013-04-21 06:42:00,49.0,39.0,-100.00,SE,139,4.0,13.0,69,0.00,,,0.00,0.000000,,2013-04-21 11:42:00,
2013-04-21 06:52:00,49.0,39.0,-100.00,SE,139,4.0,13.0,69,0.00,,,0.00,0.000000,,2013-04-21 11:52:00,
2013-04-21 07:02:00,49.0,39.0,-100.00,SE,139,4.0,13.0,69,0.00,,,0.00,0.000000,,2013-04-21 12:02:00,
2013-04-21 07:32:00,46.0,39.0,-100.00,ESE,122,4.0,7.0,77,0.00,,,0.00,3.000000,,2013-04-21 12:32:00,
2013-04-21 07:42:00,46.0,39.0,-100.00,ESE,122,4.0,7.0,77,0.00,,,0.00,3.000000,,2013-04-21 12:42:00,
2013-04-21 07:52:00,46.0,39.0,-100.00,ESE,122,4.0,7.0,77,0.00,,,0.00,3.000000,,2013-04-21 12:52:00,
2013-04-21 08:01:00,46.0,39.0,-100.00,ESE,122,4.0,7.0,77,0.00,,,0.00,3.000000,,2013-04-21 13:01:00,
2013-04-21 08:32:00,51.0,43.0,-100.00,ESE,123,5.0,10.0,75,0.00,,,0.00,72.000000,,2013-04-21 13:32:00,
2013-04-21 08:42:00,51.0,43.0,-100.00,ESE,123,5.0,10.0,75,0.00,,,0.00,72.000000,,2013-04-21 13:42:00,
2013-04-21 08:52:00,51.0,43.0,-100.00,ESE,123,5.0,10.0,75,0.00,,,0.00,72.000000,,2013-04-21 13:52:00,
2013-04-21 09:02:00,51.0,43.0,-100.00,ESE,123,5.0,10.0,75,0.00,,,0.00,72.000000,,2013-04-21 14:02:00,
2013-04-21 09:32:00,59.0,47.0,-100.00,SE,141,5.0,11.0,65,0.00,,,0.00,290.000000,,2013-04-21 14:32:00,
2013-04-21 09:42:00,59.0,47.0,-100.00,SE,141,5.0,11.0,65,0.00,,,0.00,290.000000,,2013-04-21 14:42:00,
2013-04-21 09:52:00,59.0,47.0,-100.00,SE,141,5.0,11.0,65,0.00,,,0.00,290.000000,,2013-04-21 14:52:00,
2013-04-21 10:02:00,59.0,47.0,-100.00,SE,141,5.0,11.0,65,0.00,,,0.00,290.000000,,2013-04-21 15:02:00,
2013-04-21 10:33:00,62.0,48.0,-100.00,SE,146,8.0,18.0,60,0.00,,,0.00,481.000000,,2013-04-21 15:33:00,
2013-04-21 10:43:00,62.0,48.0,-100.00,SE,146,8.0,18.0,60,0.00,,,0.00,481.000000,,2013-04-21 15:43:00,
2013-04-21 10:53:00,62.0,48.0,-100.00,SE,146,8.0,18.0,60,0.00,,,0.00,481.000000,,2013-04-21 15:53:00,
2013-04-21 11:03:00,62.0,48.0,-100.00,SE,146,8.0,18.0,60,0.00,,,0.00,481.000000,,2013-04-21 16:03:00,
2013-04-21 11:33:00,65.0,49.0,-100.00,SE,144,9.0,16.0,57,0.00,,,0.00,748.000000,,2013-04-21 16:33:00,
2013-04-21 11:42:00,65.0,49.0,-100.00,SE,144,9.0,16.0,57,0.00,,,0.00,748.000000,,2013-04-21 16:42:00,
2013-04-21 11:53:00,65.0,49.0,-100.00,SE,144,9.0,16.0,57,0.00,,,0.00,748.000000,,2013-04-21 16:53:00,
2013-04-21 12:02:00,65.0,49.0,-100.00,SE,144,9.0,16.0,57,0.00,,,0.00,748.000000,,2013-04-21 17:02:00,
2013-04-21 12:32:00,67.0,50.0,-100.00,SSE,149,8.0,18.0,55,0.00,,,0.00,680.000000,,2013-04-21 17:32:00,
2013-04-21 12:42:00,67.0,50.0,-100.00,SSE,149,8.0,18.0,55,0.00,,,0.00,680.000000,,2013-04-21 17:42:00,
2013-04-21 12:52:00,67.0,50.0,-100.00,SSE,149,8.0,18.0,55,0.00,,,0.00,680.000000,,2013-04-21 17:52:00,
2013-04-21 13:02:00,67.0,50.0,-100.00,SSE,149,8.0,18.0,55,0.00,,,0.00,680.000000,,2013-04-21 18:02:00,
2013-04-21 13:33:00,67.0,50.0,-100.00,SSE,149,7.0,15.0,55,0.00,,,0.00,547.000000,,2013-04-21 18:33:00,
2013-04-21 13:42:00,67.0,50.0,-100.00,SSE,149,7.0,15.0,55,0.00,,,0.00,547.000000,,2013-04-21 18:42:00,
2013-04-21 13:52:00,67.0,50.0,-100.00,SSE,149,7.0,15.0,55,0.00,,,0.00,547.000000,,2013-04-21 18:52:00,
2013-04-21 14:02:00,67.0,50.0,-100.00,SSE,149,7.0,15.0,55,0.00,,,0.00,547.000000,,2013-04-21 19:02:00,
2013-04-21 14:32:00,69.0,50.0,-100.00,SSE,151,9.0,15.0,51,0.00,,,0.00,666.000000,,2013-04-21 19:32:00,
2013-04-21 14:43:00,69.0,50.0,-100.00,SSE,151,9.0,15.0,51,0.00,,,0.00,666.000000,,2013-04-21 19:43:00,
2013-04-21 14:52:00,69.0,50.0,-100.00,SSE,151,9.0,15.0,51,0.00,,,0.00,666.000000,,2013-04-21 19:52:00,
2013-04-21 15:02:00,69.0,50.0,-100.00,SSE,151,9.0,15.0,51,0.00,,,0.00,666.000000,,2013-04-21 20:02:00,
2013-04-21 15:32:00,70.0,49.0,-100.00,SE,145,7.0,16.0,48,0.00,,,0.00,766.000000,,2013-04-21 20:32:00,
2013-04-21 15:42:00,70.0,49.0,-100.00,SE,145,7.0,16.0,48,0.00,,,0.00,766.000000,,2013-04-21 20:42:00,
2013-04-21 15:52:00,70.0,49.0,-100.00,SE,145,7.0,16.0,48,0.00,,,0.00,766.000000,,2013-04-21 20:52:00,
2013-04-21 16:02:00,70.0,49.0,-100.00,SE,145,7.0,16.0,48,0.00,,,0.00,766.000000,,2013-04-21 21:02:00,
2013-04-21 16:33:00,72.0,51.0,-100.00,SSE,150,5.0,15.0,47,0.00,,,0.00,772.000000,,2013-04-21 21:33:00,
2013-04-21 16:43:00,72.0,51.0,-100.00,SSE,150,5.0,15.0,47,0.00,,,0.00,772.000000,,2013-04-21 21:43:00,
2013-04-21 16:53:00,72.0,51.0,-100.00,SSE,150,5.0,15.0,47,0.00,,,0.00,772.000000,,2013-04-21 21:53:00,
2013-04-21 17:02:00,72.0,51.0,-100.00,SSE,150,5.0,15.0,47,0.00,,,0.00,772.000000,,2013-04-21 22:02:00,
2013-04-21 17:33:00,69.0,48.0,-100.00,SSE,154,6.0,12.0,48,0.00,,,0.00,358.000000,,2013-04-21 22:33:00,
2013-04-21 17:43:00,69.0,48.0,-100.00,SSE,154,6.0,12.0,48,0.00,,,0.00,358.000000,,2013-04-21 22:43:00,
2013-04-21 17:52:00,69.0,48.0,-100.00,SSE,154,6.0,12.0,48,0.00,,,0.00,358.000000,,2013-04-21 22:52:00,
2013-04-21 18:02:00,69.0,48.0,-100.00,SSE,154,6.0,12.0,48,0.00,,,0.00,358.000000,,2013-04-21 23:02:00,
2013-04-21 18:32:00,69.0,49.0,-100.00,SE,140,5.0,11.0,49,0.00,,,0.00,261.000000,,2013-04-21 23:32:00,
2013-04-21 18:43:00,69.0,49.0,-100.00,SE,140,5.0,11.0,49,0.00,,,0.00,261.000000,,2013-04-21 23:43:00,
2013-04-21 18:52:00,69.0,49.0,-100.00,SE,140,5.0,11.0,49,0.00,,,0.00,261.000000,,2013-04-21 23:52:00,
2013-04-21 19:01:00,69.0,49.0,-100.00,SE,140,5.0,11.0,49,0.00,,,0.00,261.000000,,2013-04-22 00:01:00,
2013-04-21 19:32:00,68.0,50.0,-100.00,SE,130,4.0,8.0,52,0.00,,,-99.99,140.000000,,2013-04-22 00:32:00,
2013-04-21 19:42:00,68.0,50.0,-100.00,SE,130,4.0,8.0,52,0.00,,,-99.99,140.000000,,2013-04-22 00:42:00,
2013-04-21 19:52:00,68.0,50.0,-100.00,SE,130,4.0,8.0,52,0.00,,,-99.99,140.000000,,2013-04-22 00:52:00,
2013-04-21 20:01:00,68.0,50.0,-100.00,SE,130,4.0,8.0,52,0.00,,,-99.99,140.000000,,2013-04-22 01:01:00,
2013-04-21 20:32:00,63.0,48.0,-100.00,SE,126,3.0,7.0,57,0.00,,,0.00,35.000000,,2013-04-22 01:32:00,
2013-04-21 20:42:00,63.0,48.0,-100.00,SE,126,3.0,7.0,57,0.00,,,0.00,35.000000,,2013-04-22 01:42:00,
2013-04-21 20:52:00,63.0,48.0,-100.00,SE,126,3.0,7.0,57,0.00,,,0.00,35.000000,,2013-04-22 01:52:00,
2013-04-21 21:02:00,63.0,48.0,-100.00,SE,126,3.0,7.0,57,0.00,,,0.00,35.000000,,2013-04-22 02:02:00,
2013-04-21 21:32:00,59.0,49.0,-100.00,SE,138,3.0,5.0,69,0.00,,,0.00,1.000000,,2013-04-22 02:32:00,
2013-04-21 21:42:00,59.0,49.0,-100.00,SE,138,3.0,5.0,69,0.00,,,0.00,1.000000,,2013-04-22 02:42:00,
2013-04-21 21:52:00,59.0,49.0,-100.00,SE,138,3.0,5.0,69,0.00,,,0.00,1.000000,,2013-04-22 02:52:00,
2013-04-21 22:02:00,59.0,49.0,-100.00,SE,138,3.0,5.0,69,0.00,,,0.00,1.000000,,2013-04-22 03:02:00,
2013-04-21 22:33:00,60.0,49.0,-100.00,SE,136,3.0,7.0,66,0.00,,,0.00,0.000000,,2013-04-22 03:33:00,
2013-04-21 22:43:00,60.0,49.0,-100.00,SE,136,3.0,7.0,66,0.00,,,0.00,0.000000,,2013-04-22 03:43:00,
2013-04-21 22:52:00,60.0,49.0,-100.00,SE,136,3.0,7.0,66,0.00,,,0.00,0.000000,,2013-04-22 03:52:00,
2013-04-21 23:03:00,60.0,49.0,-100.00,SE,136,3.0,7.0,66,0.00,,,0.00,0.000000,,2013-04-22 04:03:00,
2013-04-21 23:33:00,59.0,47.0,-100.00,SE,140,3.0,7.0,65,0.00,,,0.00,0.000000,,2013-04-22 04:33:00,
2013-04-21 23:43:00,59.0,47.0,-100.00,SE,140,3.0,7.0,65,0.00,,,0.00,0.000000,,2013-04-22 04:43:00,
2013-04-21 23:53:00,59.0,47.0,-100.00,SE,140,3.0,7.0,65,0.00,,,0.00,0.000000,,2013-04-22 04:53:00,